createdAt,value
2022-10-23T00:03:08.740Z,17.5
2022-10-23T00:06:49.119Z,17.5
2022-10-23T00:10:29.377Z,17.437
2022-10-23T00:14:10.565Z,17.437
2022-10-23T00:17:51.201Z,17.5
2022-10-23T00:21:32.712Z,17.5
2022-10-23T00:25:13.450Z,17.5
2022-10-23T00:28:53.998Z,17.5
2022-10-23T00:32:34.454Z,17.5
2022-10-23T00:36:15.217Z,17.437
2022-10-23T00:39:55.926Z,17.437
2022-10-23T00:43:36.521Z,17.437
2022-10-23T00:47:16.354Z,17.437
2022-10-23T00:50:58.430Z,17.437
2022-10-23T00:55:08.308Z,17.437
2022-10-23T00:58:49.007Z,17.437
2022-10-23T01:03:09.802Z,17.437
2022-10-23T01:06:50.286Z,17.437
2022-10-23T01:10:31.078Z,17.437
2022-10-23T01:14:11.756Z,17.375
2022-10-23T01:17:51.960Z,17.375
2022-10-23T01:21:32.008Z,17.437
2022-10-23T01:25:13.016Z,17.375
2022-10-23T01:28:53.301Z,17.375
2022-10-23T01:32:33.291Z,17.375
2022-10-23T01:36:14.844Z,17.375
2022-10-23T01:39:55.344Z,17.375
2022-10-23T01:43:35.610Z,17.375
2022-10-23T01:47:15.679Z,17.375
2022-10-23T01:50:55.950Z,17.375
2022-10-23T01:54:36.082Z,17.375
2022-10-23T01:58:17.598Z,17.375
2022-10-23T02:03:07.960Z,17.312
2022-10-23T02:06:48.280Z,17.375
2022-10-23T02:10:29.467Z,17.312
2022-10-23T02:14:10.041Z,17.312
2022-10-23T02:17:50.763Z,17.312
2022-10-23T02:21:31.243Z,17.312
2022-10-23T02:25:15.891Z,17.312
2022-10-23T02:28:56.446Z,17.312
2022-10-23T02:32:36.569Z,17.312
2022-10-23T02:36:17.419Z,17.312
2022-10-23T02:39:58.927Z,17.312
2022-10-23T02:43:38.890Z,17.312
2022-10-23T02:47:19.698Z,17.312
2022-10-23T02:50:59.949Z,17.312
2022-10-23T02:54:40.335Z,17.312
2022-10-23T02:58:25.451Z,17.312
2022-10-23T03:03:09.161Z,17.25
2022-10-23T03:06:49.446Z,17.25
2022-10-23T03:10:29.964Z,17.25
2022-10-23T03:14:10.870Z,17.25
2022-10-23T03:17:51.192Z,17.25
2022-10-23T03:21:31.827Z,17.25
2022-10-23T03:25:13.001Z,17.25
2022-10-23T03:28:53.957Z,17.25
2022-10-23T03:32:34.412Z,17.25
2022-10-23T03:36:15.730Z,17.187
2022-10-23T03:39:56.500Z,17.187
2022-10-23T03:43:37.316Z,17.187
2022-10-23T03:47:17.357Z,17.187
2022-10-23T03:50:57.293Z,17.187
2022-10-23T03:54:37.916Z,17.187
2022-10-23T03:58:22.786Z,17.187
2022-10-23T04:03:09.309Z,17.187
2022-10-23T04:08:41.008Z,17.187
2022-10-23T04:12:22.025Z,17.187
2022-10-23T04:16:03.094Z,17.187
2022-10-23T04:19:43.606Z,17.187
2022-10-23T04:23:24.827Z,17.187
2022-10-23T04:27:05.744Z,17.187
2022-10-23T04:30:47.855Z,17.187
2022-10-23T04:34:28.402Z,17.187
2022-10-23T04:38:10.007Z,17.125
2022-10-23T04:41:50.679Z,17.125
2022-10-23T04:45:31.645Z,17.125
2022-10-23T04:49:17.104Z,17.125
2022-10-23T04:52:58.091Z,17.125
2022-10-23T04:56:38.515Z,17.125
2022-10-23T05:03:09.064Z,17.125
2022-10-23T05:06:49.231Z,17.125
2022-10-23T05:10:30.195Z,17.125
2022-10-23T05:14:10.920Z,17.125
2022-10-23T05:17:57.676Z,17.062
2022-10-23T05:21:38.853Z,17.062
2022-10-23T05:25:23.260Z,17.062
2022-10-23T05:29:04.176Z,17.062
2022-10-23T05:32:45.353Z,17.062
2022-10-23T05:36:25.872Z,17.062
2022-10-23T05:40:06.085Z,17.062
2022-10-23T05:43:46.894Z,17.062
2022-10-23T05:47:27.267Z,17.062
2022-10-23T05:51:25.989Z,17.062
2022-10-23T05:55:11.568Z,17.062
2022-10-23T05:58:52.335Z,17.062
2022-10-23T06:03:08.249Z,17.062
2022-10-23T06:06:49.408Z,17.062
2022-10-23T06:10:30.651Z,17.0
2022-10-23T06:14:11.548Z,17.0
2022-10-23T06:17:56.217Z,17.0
2022-10-23T06:21:36.768Z,17.0
2022-10-23T06:25:18.092Z,17.0
2022-10-23T06:29:03.143Z,17.0
2022-10-23T06:32:43.671Z,17.0
2022-10-23T06:36:24.081Z,17.0
2022-10-23T06:40:09.522Z,17.0
2022-10-23T06:43:50.877Z,17.0
2022-10-23T06:47:38.565Z,17.0
2022-10-23T06:51:20.282Z,17.0
2022-10-23T06:55:35.096Z,17.0
2022-10-23T06:59:20.322Z,17.0
2022-10-23T07:03:10.653Z,17.0
2022-10-23T07:06:56.369Z,17.0
2022-10-23T07:10:37.443Z,17.0
2022-10-23T07:14:18.363Z,17.0
2022-10-23T07:17:59.170Z,17.0
2022-10-23T07:21:39.427Z,17.0
2022-10-23T07:25:20.208Z,17.0
2022-10-23T07:29:00.655Z,17.0
2022-10-23T07:32:41.212Z,17.0
2022-10-23T07:36:27.209Z,17.062
2022-10-23T07:40:08.644Z,17.0
2022-10-23T07:43:55.229Z,17.062
2022-10-23T07:47:35.654Z,17.062
2022-10-23T07:51:16.490Z,17.062
2022-10-23T07:55:02.577Z,17.062
2022-10-23T07:58:43.264Z,17.062
2022-10-23T08:03:09.617Z,17.062
2022-10-23T08:06:50.399Z,17.062
2022-10-23T08:10:35.659Z,17.062
2022-10-23T08:14:16.951Z,17.062
2022-10-23T08:18:00.615Z,17.062
2022-10-23T08:21:41.199Z,17.125
2022-10-23T08:25:25.069Z,17.125
2022-10-23T08:29:07.983Z,17.125
2022-10-23T08:32:48.518Z,17.125
2022-10-23T08:36:29.033Z,17.125
2022-10-23T08:40:13.908Z,17.125
2022-10-23T08:43:54.323Z,17.125
2022-10-23T08:47:38.610Z,17.187
2022-10-23T08:51:18.998Z,17.187
2022-10-23T08:55:03.093Z,17.187
2022-10-23T08:58:43.648Z,17.187
2022-10-23T09:03:08.810Z,17.187
2022-10-23T09:06:49.303Z,17.187
2022-10-23T09:10:30.553Z,17.187
2022-10-23T09:14:10.862Z,17.187
2022-10-23T09:17:52.412Z,17.187
2022-10-23T09:21:38.417Z,17.187
2022-10-23T09:25:25.649Z,17.187
2022-10-23T09:29:07.315Z,17.187
2022-10-23T09:32:47.915Z,17.187
2022-10-23T09:36:28.706Z,17.187
2022-10-23T09:40:11.405Z,17.187
2022-10-23T09:43:52.039Z,17.25
2022-10-23T09:47:32.385Z,17.25
2022-10-23T09:51:14.049Z,17.25
2022-10-23T09:54:54.590Z,17.25
2022-10-23T09:58:35.967Z,17.25
2022-10-23T10:03:09.057Z,17.25
2022-10-23T10:06:49.490Z,17.25
2022-10-23T10:10:32.181Z,17.25
2022-10-23T10:14:13.064Z,17.187
2022-10-23T10:17:53.426Z,17.187
2022-10-23T10:21:40.212Z,17.187
2022-10-23T10:25:20.898Z,17.187
2022-10-23T10:29:01.637Z,17.187
2022-10-23T10:32:42.330Z,17.187
2022-10-23T10:36:23.471Z,17.187
2022-10-23T10:40:04.638Z,17.187
2022-10-23T10:43:45.124Z,17.25
2022-10-23T10:47:25.939Z,17.25
2022-10-23T10:51:06.705Z,17.25
2022-10-23T10:54:46.963Z,17.25
2022-10-23T10:58:31.848Z,17.25
2022-10-23T11:03:09.250Z,17.25
2022-10-23T11:06:49.422Z,17.25
2022-10-23T11:11:06.579Z,17.312
2022-10-23T11:14:46.888Z,17.25
2022-10-23T11:18:28.371Z,17.312
2022-10-23T11:22:09.082Z,17.312
2022-10-23T11:25:50.571Z,17.312
2022-10-23T11:29:39.922Z,17.312
2022-10-23T11:33:23.349Z,17.312
2022-10-23T11:37:03.930Z,17.312
2022-10-23T11:40:44.577Z,17.375
2022-10-23T11:44:27.191Z,17.375
2022-10-23T11:48:12.623Z,17.375
2022-10-23T11:51:53.981Z,17.437
2022-10-23T11:56:02.877Z,17.437
2022-10-23T11:59:48.069Z,17.437
2022-10-23T12:03:08.757Z,17.437
2022-10-23T12:06:49.469Z,17.5
2022-10-23T12:10:31.704Z,17.5
2022-10-23T12:14:16.869Z,17.5
2022-10-23T12:17:57.623Z,17.5
2022-10-23T12:21:38.721Z,17.5
2022-10-23T12:25:25.005Z,17.5
2022-10-23T12:29:05.806Z,17.562
2022-10-23T12:32:46.693Z,17.562
2022-10-23T12:36:27.370Z,17.625
2022-10-23T12:40:14.526Z,17.625
2022-10-23T12:43:55.317Z,17.687
2022-10-23T12:47:41.518Z,17.687
2022-10-23T12:51:22.380Z,17.687
2022-10-23T12:55:03.078Z,17.75
2022-10-23T12:58:43.630Z,17.75
2022-10-23T13:03:17.365Z,17.75
2022-10-23T13:06:58.849Z,17.75
2022-10-23T13:10:40.498Z,17.687
2022-10-23T13:14:21.591Z,17.687
2022-10-23T13:18:02.994Z,17.687
2022-10-23T13:21:43.871Z,17.687
2022-10-23T13:25:31.254Z,17.625
2022-10-23T13:29:12.473Z,17.687
2022-10-23T13:32:58.996Z,17.687
2022-10-23T13:37:14.102Z,17.687
2022-10-23T13:40:55.263Z,17.687
2022-10-23T13:44:36.301Z,17.687
2022-10-23T13:48:17.647Z,17.687
2022-10-23T13:52:03.273Z,17.687
2022-10-23T13:55:44.028Z,17.687
2022-10-23T13:59:28.978Z,17.687
2022-10-23T14:03:09.366Z,17.687
2022-10-23T14:06:49.905Z,17.75
2022-10-23T14:10:34.075Z,17.75
2022-10-23T14:14:16.016Z,17.75
2022-10-23T14:17:59.121Z,17.75
2022-10-23T14:21:51.211Z,17.75
2022-10-23T14:25:32.785Z,17.75
2022-10-23T14:29:19.830Z,17.75
2022-10-23T14:33:04.502Z,17.687
2022-10-23T14:37:07.246Z,17.687
2022-10-23T14:40:48.475Z,17.687
2022-10-23T14:44:29.087Z,17.687
2022-10-23T14:48:10.358Z,17.687
2022-10-23T14:51:57.022Z,17.687
2022-10-23T14:55:42.364Z,17.75
2022-10-23T14:59:23.883Z,17.687
2022-10-23T15:03:15.015Z,17.687
2022-10-23T15:07:01.393Z,17.687
2022-10-23T15:10:43.311Z,17.687
2022-10-23T15:14:24.607Z,17.687
2022-10-23T15:18:05.764Z,17.687
2022-10-23T15:21:51.174Z,17.625
2022-10-23T15:25:38.555Z,17.625
2022-10-23T15:29:19.740Z,17.625
2022-10-23T15:33:00.601Z,17.625
2022-10-23T15:36:41.748Z,17.625
2022-10-23T15:40:27.515Z,17.562
2022-10-23T15:44:09.515Z,17.562
2022-10-23T15:47:55.503Z,17.562
2022-10-23T15:51:36.444Z,17.562
2022-10-23T15:55:21.918Z,17.5
2022-10-23T15:59:02.588Z,17.5
2022-10-23T16:03:13.959Z,17.5
2022-10-23T16:08:36.321Z,17.5
2022-10-23T16:12:17.636Z,17.5
2022-10-23T16:15:58.919Z,17.5
2022-10-23T16:19:40.323Z,17.5
2022-10-23T16:23:27.267Z,17.5
2022-10-23T16:27:08.174Z,17.5
2022-10-23T16:30:48.728Z,17.5
2022-10-23T16:34:29.966Z,17.562
2022-10-23T16:38:11.140Z,17.625
2022-10-23T16:41:56.039Z,17.687
2022-10-23T16:45:37.891Z,17.625
2022-10-23T16:49:18.147Z,17.562
2022-10-23T16:52:58.989Z,17.562
2022-10-23T16:56:39.550Z,17.562
2022-10-23T17:03:10.815Z,17.5
2022-10-23T17:06:54.559Z,17.5
2022-10-23T17:10:35.700Z,17.5
2022-10-23T17:14:21.432Z,17.5
2022-10-23T17:18:02.510Z,17.5
2022-10-23T17:22:17.575Z,17.5
2022-10-23T17:25:58.100Z,17.5
2022-10-23T17:29:38.806Z,17.562
2022-10-23T17:33:23.321Z,17.625
2022-10-23T17:37:04.175Z,17.625
2022-10-23T17:40:56.066Z,17.687
2022-10-23T17:44:37.814Z,17.687
2022-10-23T17:48:18.719Z,17.687
2022-10-23T17:51:59.464Z,17.75
2022-10-23T17:55:41.049Z,17.687
2022-10-23T17:59:22.406Z,17.687
2022-10-23T18:03:08.727Z,17.75
2022-10-23T18:07:00.745Z,17.687
2022-10-23T18:10:41.358Z,17.75
2022-10-23T18:14:29.446Z,17.75
2022-10-23T18:18:13.205Z,17.687
2022-10-23T18:21:54.160Z,17.687
2022-10-23T18:25:35.820Z,17.687
2022-10-23T18:29:16.238Z,17.687
2022-10-23T18:32:56.642Z,17.687
2022-10-23T18:36:37.363Z,17.687
2022-10-23T18:40:27.865Z,17.687
2022-10-23T18:44:32.358Z,17.687
2022-10-23T18:48:13.609Z,17.687
2022-10-23T18:51:58.917Z,17.687
2022-10-23T18:55:40.078Z,17.75
2022-10-23T18:59:21.032Z,17.75
2022-10-23T19:03:13.204Z,17.75
2022-10-23T19:06:53.884Z,17.75
2022-10-23T19:10:34.853Z,17.687
2022-10-23T19:14:21.225Z,17.75
2022-10-23T19:18:01.981Z,17.75
2022-10-23T19:21:42.958Z,17.75
2022-10-23T19:25:24.255Z,17.75
2022-10-23T19:29:10.083Z,17.75
2022-10-23T19:32:54.909Z,17.75
2022-10-23T19:36:49.836Z,17.75
2022-10-23T19:40:31.541Z,17.75
2022-10-23T19:44:12.485Z,17.75
2022-10-23T19:47:58.766Z,17.75
2022-10-23T19:51:39.557Z,17.75
2022-10-23T19:55:27.617Z,17.75
2022-10-23T19:59:13.919Z,17.812
2022-10-23T20:03:17.592Z,17.812
2022-10-23T20:06:58.458Z,17.812
2022-10-23T20:10:39.699Z,17.812
2022-10-23T20:14:50.124Z,17.75
2022-10-23T20:18:36.450Z,17.812
2022-10-23T20:22:17.511Z,17.812
2022-10-23T20:25:58.345Z,17.812
2022-10-23T20:29:44.367Z,17.812
2022-10-23T20:33:25.815Z,17.812
2022-10-23T20:37:11.791Z,17.875
2022-10-23T20:40:51.997Z,17.812
2022-10-23T20:44:32.645Z,17.875
2022-10-23T20:48:13.799Z,17.875
2022-10-23T20:51:55.451Z,17.875
2022-10-23T20:55:36.265Z,17.812
2022-10-23T20:59:17.176Z,17.812
2022-10-23T21:03:14.144Z,17.812
2022-10-23T21:07:28.787Z,17.75
2022-10-23T21:11:09.524Z,17.75
2022-10-23T21:14:49.996Z,17.687
2022-10-23T21:19:07.825Z,17.687
2022-10-23T21:22:48.403Z,17.687
2022-10-23T21:26:34.156Z,17.625
2022-10-23T21:30:47.287Z,17.625
2022-10-23T21:34:28.192Z,17.625
2022-10-23T21:39:04.264Z,17.625
2022-10-23T21:42:44.828Z,17.625
2022-10-23T21:46:30.779Z,17.625
2022-10-23T21:50:11.958Z,17.625
2022-10-23T21:53:56.738Z,17.625
2022-10-23T21:57:37.295Z,17.562
2022-10-23T22:03:11.024Z,17.562
2022-10-23T22:06:51.808Z,17.562
2022-10-23T22:10:32.857Z,17.562
2022-10-23T22:14:13.175Z,17.562
2022-10-23T22:17:53.976Z,17.562
2022-10-23T22:21:38.884Z,17.562
2022-10-23T22:25:19.149Z,17.562
2022-10-23T22:28:59.600Z,17.5
2022-10-23T22:32:40.145Z,17.5
2022-10-23T22:36:43.580Z,17.5
2022-10-23T22:40:24.040Z,17.5
2022-10-23T22:44:04.797Z,17.5
2022-10-23T22:47:45.224Z,17.5
2022-10-23T22:51:29.589Z,17.5
2022-10-23T22:55:10.214Z,17.5
2022-10-23T22:58:51.119Z,17.5
2022-10-23T23:03:11.196Z,17.5
2022-10-23T23:07:28.309Z,17.5
2022-10-23T23:11:09.990Z,17.5
2022-10-23T23:14:55.933Z,17.5
2022-10-23T23:18:36.161Z,17.5
2022-10-23T23:22:16.301Z,17.5
2022-10-23T23:25:56.753Z,17.5
2022-10-23T23:29:37.111Z,17.5
2022-10-23T23:33:18.388Z,17.5
2022-10-23T23:36:59.060Z,17.5
2022-10-23T23:40:39.419Z,17.5
2022-10-23T23:44:20.767Z,17.5
2022-10-23T23:48:10.264Z,17.5
2022-10-23T23:51:51.002Z,17.5
2022-10-23T23:55:32.055Z,17.5
2022-10-23T23:59:13.166Z,17.5
